createdAt,value
2023-05-14T00:00:13.776Z,19.90
2023-05-14T00:02:42.252Z,17.30
2023-05-14T00:05:14.319Z,21.60
2023-05-14T00:07:42.735Z,17.77
2023-05-14T00:10:11.591Z,18.00
2023-05-14T00:12:40.024Z,17.03
2023-05-14T00:15:09.071Z,18.13
2023-05-14T00:17:39.040Z,18.30
2023-05-14T00:20:08.184Z,15.67
2023-05-14T00:22:38.199Z,18.90
2023-05-14T00:25:07.169Z,19.30
2023-05-14T00:27:36.093Z,18.43
2023-05-14T00:30:07.183Z,16.23
2023-05-14T00:32:35.869Z,20.20
2023-05-14T00:35:04.543Z,17.53
2023-05-14T00:37:33.207Z,15.77
2023-05-14T00:40:03.901Z,20.60
2023-05-14T00:42:32.769Z,19.27
2023-05-14T00:45:02.123Z,19.17
2023-05-14T00:47:30.559Z,20.17
2023-05-14T00:49:59.605Z,20.27
2023-05-14T00:52:28.568Z,17.17
2023-05-14T00:54:57.395Z,21.23
2023-05-14T00:57:27.460Z,17.83
2023-05-14T00:59:55.914Z,18.17
2023-05-14T01:02:24.368Z,18.40
2023-05-14T01:04:53.193Z,21.13
2023-05-14T01:07:25.791Z,18.13
2023-05-14T01:09:56.731Z,19.73
2023-05-14T01:12:29.600Z,19.80
2023-05-14T01:15:01.483Z,19.00
2023-05-14T01:17:31.588Z,17.70
2023-05-14T01:20:00.446Z,19.13
2023-05-14T01:22:30.332Z,16.77
2023-05-14T01:24:58.982Z,21.37
2023-05-14T01:27:31.732Z,21.80
2023-05-14T01:30:04.292Z,19.77
2023-05-14T01:32:34.405Z,21.97
2023-05-14T01:35:04.456Z,21.27
2023-05-14T01:37:34.700Z,21.73
2023-05-14T01:40:03.697Z,17.00
2023-05-14T01:42:32.365Z,18.00
2023-05-14T01:45:01.186Z,20.67
2023-05-14T01:47:29.807Z,19.00
2023-05-14T01:49:58.418Z,21.73
2023-05-14T01:52:26.843Z,19.53
2023-05-14T01:54:58.392Z,19.50
2023-05-14T01:57:26.885Z,16.87
2023-05-14T01:59:55.502Z,19.23
2023-05-14T02:02:23.864Z,17.57
2023-05-14T02:04:52.550Z,20.93
2023-05-14T02:07:22.027Z,18.87
2023-05-14T02:09:50.460Z,18.13
2023-05-14T02:12:20.432Z,20.53
2023-05-14T02:14:48.964Z,18.83
2023-05-14T02:17:17.859Z,19.57
2023-05-14T02:19:46.318Z,17.47
2023-05-14T02:22:16.806Z,20.07
2023-05-14T02:24:45.581Z,21.57
2023-05-14T02:27:13.968Z,22.97
2023-05-14T02:29:44.277Z,22.83
2023-05-14T02:32:12.814Z,23.73
2023-05-14T02:34:41.504Z,23.20
2023-05-14T02:37:10.293Z,24.73
2023-05-14T02:39:39.266Z,23.77
2023-05-14T02:42:08.563Z,23.80
2023-05-14T02:44:37.178Z,22.17
2023-05-14T02:47:07.825Z,26.80
2023-05-14T02:49:36.623Z,23.23
2023-05-14T02:52:05.101Z,22.03
2023-05-14T02:54:33.567Z,26.83
2023-05-14T02:57:02.023Z,27.27
2023-05-14T02:59:31.501Z,21.30
2023-05-14T03:02:05.795Z,20.57
2023-05-14T03:04:36.277Z,20.33
2023-05-14T03:07:04.711Z,24.60
2023-05-14T03:09:33.667Z,19.90
2023-05-14T03:12:05.930Z,19.77
2023-05-14T03:14:34.373Z,17.47
2023-05-14T03:17:04.299Z,19.67
2023-05-14T03:19:32.896Z,20.43
2023-05-14T03:22:02.914Z,18.57
2023-05-14T03:24:32.270Z,21.63
2023-05-14T03:27:01.972Z,23.23
2023-05-14T03:29:30.473Z,19.03
2023-05-14T03:31:59.074Z,23.33
2023-05-14T03:34:27.510Z,23.83
2023-05-14T03:36:56.545Z,16.90
2023-05-14T03:39:26.273Z,24.37
2023-05-14T03:41:57.249Z,19.43
2023-05-14T03:44:26.058Z,18.80
2023-05-14T03:46:54.785Z,20.40
2023-05-14T03:49:23.607Z,19.20
2023-05-14T03:51:52.146Z,19.83
2023-05-14T03:54:20.619Z,22.23
2023-05-14T03:56:50.476Z,22.40
2023-05-14T03:59:19.354Z,18.80
2023-05-14T04:01:48.026Z,23.67
2023-05-14T04:04:17.855Z,20.67
2023-05-14T04:06:46.313Z,23.13
2023-05-14T04:09:14.800Z,23.67
2023-05-14T04:11:43.284Z,20.50
2023-05-14T04:14:13.819Z,24.30
2023-05-14T04:16:42.725Z,23.03
2023-05-14T04:19:11.372Z,24.03
2023-05-14T04:21:40.134Z,22.33
2023-05-14T04:24:08.904Z,23.10
2023-05-14T04:26:37.613Z,26.20
2023-05-14T04:29:05.991Z,25.53
2023-05-14T04:31:35.876Z,22.47
2023-05-14T04:34:04.391Z,22.80
2023-05-14T04:36:34.254Z,21.97
2023-05-14T04:39:02.821Z,20.60
2023-05-14T04:41:31.369Z,21.80
2023-05-14T04:44:00.808Z,21.77
2023-05-14T04:46:29.307Z,26.57
2023-05-14T04:48:59.295Z,24.37
2023-05-14T04:51:28.026Z,25.93
2023-05-14T04:53:56.513Z,22.40
2023-05-14T04:56:25.051Z,21.70
2023-05-14T04:58:53.398Z,21.40
2023-05-14T05:01:23.563Z,26.07
2023-05-14T05:03:53.019Z,31.40
2023-05-14T05:06:22.876Z,24.30
2023-05-14T05:08:51.328Z,23.17
2023-05-14T05:11:19.685Z,24.07
2023-05-14T05:13:48.055Z,21.73
2023-05-14T05:16:16.770Z,25.60
2023-05-14T05:18:45.775Z,24.77
2023-05-14T05:21:14.600Z,26.40
2023-05-14T05:23:44.420Z,27.23
2023-05-14T05:26:13.169Z,25.70
2023-05-14T05:28:41.605Z,25.43
2023-05-14T05:31:10.280Z,21.73
2023-05-14T05:33:38.922Z,27.47
2023-05-14T05:36:07.564Z,29.80
2023-05-14T05:38:36.251Z,22.70
2023-05-14T05:41:06.455Z,23.97
2023-05-14T05:43:34.950Z,23.00
2023-05-14T05:46:03.460Z,27.03
2023-05-14T05:48:32.164Z,26.53
2023-05-14T05:51:00.586Z,26.23
2023-05-14T05:53:29.023Z,28.33
2023-05-14T05:56:00.333Z,22.57
2023-05-14T05:58:31.442Z,25.60
2023-05-14T06:01:00.028Z,23.67
2023-05-14T06:03:28.886Z,25.90
2023-05-14T06:05:57.273Z,27.10
2023-05-14T06:08:25.868Z,29.43
2023-05-14T06:10:54.470Z,25.13
2023-05-14T06:13:23.905Z,27.67
2023-05-14T06:15:54.292Z,28.50
2023-05-14T06:18:23.678Z,27.40
2023-05-14T06:20:52.402Z,27.30
2023-05-14T06:23:21.071Z,25.00
2023-05-14T06:25:51.210Z,28.10
2023-05-14T06:28:21.178Z,27.33
2023-05-14T06:30:52.246Z,29.87
2023-05-14T06:33:29.845Z,32.87
2023-05-14T06:35:58.710Z,28.87
2023-05-14T06:38:27.375Z,28.30
2023-05-14T06:40:55.880Z,28.23
2023-05-14T06:43:24.461Z,28.37
2023-05-14T06:45:53.182Z,26.50
2023-05-14T06:48:23.263Z,29.30
2023-05-14T06:50:51.985Z,27.97
2023-05-14T06:53:20.603Z,27.10
2023-05-14T06:55:49.405Z,23.80
2023-05-14T06:58:17.833Z,25.23
2023-05-14T07:00:48.125Z,26.17
2023-05-14T07:03:17.154Z,30.50
2023-05-14T07:05:47.364Z,25.53
2023-05-14T07:08:19.080Z,30.83
2023-05-14T07:10:47.832Z,24.57
2023-05-14T07:13:16.556Z,27.73
2023-05-14T07:15:49.858Z,24.43
2023-05-14T07:18:18.798Z,27.50
2023-05-14T07:20:50.654Z,32.27
2023-05-14T07:23:21.341Z,30.50
2023-05-14T07:26:06.081Z,24.80
2023-05-14T07:28:35.119Z,28.93
2023-05-14T07:31:05.205Z,30.57
2023-05-14T07:33:34.134Z,30.07
2023-05-14T07:36:05.541Z,28.63
2023-05-14T07:38:34.551Z,29.93
2023-05-14T07:41:04.353Z,32.53
2023-05-14T07:43:33.152Z,29.10
2023-05-14T07:46:01.994Z,29.80
2023-05-14T07:48:31.194Z,31.17
2023-05-14T07:51:00.196Z,30.50
2023-05-14T07:53:30.747Z,29.73
2023-05-14T07:56:01.648Z,29.40
2023-05-14T07:58:30.555Z,28.77
2023-05-14T08:01:01.531Z,27.80
2023-05-14T08:03:30.620Z,27.97
2023-05-14T08:05:59.746Z,31.03
2023-05-14T08:08:31.226Z,29.67
2023-05-14T08:11:00.222Z,29.23
2023-05-14T08:13:29.038Z,31.23
2023-05-14T08:15:57.954Z,27.63
2023-05-14T08:18:26.770Z,27.87
2023-05-14T08:20:56.134Z,26.20
2023-05-14T08:23:28.372Z,28.60
2023-05-14T08:25:59.566Z,28.07
2023-05-14T08:28:35.168Z,27.60
2023-05-14T08:31:03.750Z,27.50
2023-05-14T08:33:32.179Z,25.43
2023-05-14T08:36:00.747Z,25.13
2023-05-14T08:38:29.173Z,23.53
2023-05-14T08:41:01.806Z,26.40
2023-05-14T08:43:33.101Z,23.77
2023-05-14T08:46:03.209Z,20.37
2023-05-14T08:48:34.975Z,22.00
2023-05-14T08:51:04.729Z,21.73
2023-05-14T08:53:33.241Z,19.17
2023-05-14T08:56:03.742Z,17.63
2023-05-14T08:58:37.556Z,14.67
2023-05-14T09:01:06.020Z,15.13
2023-05-14T09:03:35.087Z,12.33
2023-05-14T09:06:03.950Z,11.43
2023-05-14T09:08:32.418Z,12.13
2023-05-14T09:11:01.213Z,11.10
2023-05-14T09:13:31.454Z,11.53
2023-05-14T09:16:00.579Z,12.60
2023-05-14T09:18:29.355Z,10.10
2023-05-14T09:20:57.910Z,9.50
2023-05-14T09:23:27.766Z,11.77
2023-05-14T09:25:57.315Z,10.30
2023-05-14T09:28:28.190Z,9.63
2023-05-14T09:30:58.130Z,11.17
2023-05-14T09:33:29.988Z,10.07
2023-05-14T09:36:00.938Z,10.37
2023-05-14T09:38:32.733Z,11.60
2023-05-14T09:41:04.632Z,7.83
2023-05-14T09:43:33.240Z,9.43
2023-05-14T09:46:03.048Z,9.40
2023-05-14T09:48:31.480Z,8.37
2023-05-14T09:51:00.793Z,8.30
2023-05-14T09:53:30.765Z,9.23
2023-05-14T09:55:59.575Z,10.33
2023-05-14T09:58:27.963Z,7.67
2023-05-14T10:00:57.042Z,7.57
2023-05-14T10:03:27.909Z,9.80
2023-05-14T10:05:58.062Z,7.50
2023-05-14T10:08:28.444Z,7.90
2023-05-14T10:10:57.396Z,9.13
2023-05-14T10:13:28.392Z,7.20
2023-05-14T10:16:00.864Z,9.10
2023-05-14T10:18:33.230Z,6.40
2023-05-14T10:21:05.814Z,8.97
2023-05-14T10:23:34.224Z,7.40
2023-05-14T10:26:03.250Z,10.07
2023-05-14T10:28:32.149Z,9.57
2023-05-14T10:31:01.739Z,10.20
2023-05-14T10:33:31.947Z,8.20
2023-05-14T10:36:02.360Z,10.03
2023-05-14T10:38:31.239Z,7.87
2023-05-14T10:41:01.181Z,8.83
2023-05-14T10:43:30.963Z,9.37
2023-05-14T10:45:59.729Z,9.60
2023-05-14T10:48:28.625Z,10.60
2023-05-14T10:50:58.343Z,9.07
2023-05-14T10:53:34.884Z,8.20
2023-05-14T10:56:08.578Z,11.17
2023-05-14T10:58:38.153Z,8.30
2023-05-14T11:01:07.704Z,8.03
2023-05-14T11:03:42.264Z,8.67
2023-05-14T11:06:11.300Z,7.97
2023-05-14T11:08:40.054Z,8.10
2023-05-14T11:11:10.853Z,7.63
2023-05-14T11:14:09.003Z,9.50
2023-05-14T11:16:38.576Z,9.63
2023-05-14T11:19:07.067Z,6.90
2023-05-14T11:21:35.822Z,7.27
2023-05-14T11:24:05.652Z,8.77
2023-05-14T11:26:59.657Z,8.70
2023-05-14T11:29:29.719Z,8.03
2023-05-14T11:31:58.291Z,10.17
2023-05-14T11:34:27.011Z,9.37
2023-05-14T11:36:55.529Z,8.97
2023-05-14T11:39:24.074Z,10.50
2023-05-14T11:41:52.797Z,7.43
2023-05-14T11:44:21.241Z,7.20
2023-05-14T11:49:29.059Z,6.93
2023-05-14T11:52:00.696Z,7.67
2023-05-14T11:54:29.772Z,8.20
2023-05-14T11:56:59.919Z,9.33
2023-05-14T11:59:29.157Z,6.60
2023-05-14T12:01:57.551Z,7.93
2023-05-14T12:04:27.527Z,7.63
2023-05-14T12:06:56.258Z,6.93
2023-05-14T12:09:25.212Z,7.87
2023-05-14T12:11:54.431Z,6.73
2023-05-14T12:14:23.851Z,5.67
2023-05-14T12:22:59.050Z,6.07
2023-05-14T12:25:27.471Z,4.60
2023-05-14T12:27:57.031Z,5.30
2023-05-14T12:30:25.464Z,6.17
2023-05-14T12:32:53.989Z,4.97
2023-05-14T12:35:25.527Z,4.77
2023-05-14T12:37:54.268Z,7.00
2023-05-14T12:40:24.155Z,6.10
2023-05-14T12:42:55.505Z,5.10
2023-05-14T12:45:25.394Z,7.43
2023-05-14T12:47:54.275Z,5.83
2023-05-14T12:50:23.031Z,5.23
2023-05-14T12:52:51.656Z,4.17
2023-05-14T13:01:11.738Z,5.03
2023-05-14T13:06:20.672Z,3.57
2023-05-14T13:08:49.264Z,3.55
2023-05-14T13:11:19.205Z,3.65
2023-05-14T13:13:47.571Z,5.37
2023-05-14T13:16:23.047Z,4.47
2023-05-14T13:18:53.001Z,4.63
2023-05-14T13:21:21.408Z,4.97
2023-05-14T13:29:33.128Z,4.20
2023-05-14T13:32:01.735Z,5.32
2023-05-14T13:42:54.404Z,4.70
2023-05-14T13:45:23.181Z,4.93
2023-05-14T13:53:35.035Z,4.82
2023-05-14T14:01:55.288Z,4.70
2023-05-14T14:04:25.916Z,4.23
2023-05-14T14:09:52.484Z,5.00
2023-05-14T14:12:20.946Z,5.20
2023-05-14T14:14:49.855Z,5.30
2023-05-14T14:17:19.641Z,4.40
2023-05-14T14:19:48.082Z,4.80
2023-05-14T14:22:17.648Z,3.57
2023-05-14T14:27:52.549Z,6.30
2023-05-14T14:30:23.156Z,4.50
2023-05-14T14:32:53.086Z,5.27
2023-05-14T14:35:21.904Z,5.03
2023-05-14T14:37:52.558Z,4.10
2023-05-14T14:40:23.957Z,4.83
2023-05-14T14:42:52.499Z,3.63
2023-05-14T14:45:21.433Z,4.60
2023-05-14T14:47:51.332Z,4.53
2023-05-14T14:50:21.353Z,5.00
2023-05-14T14:52:50.722Z,4.07
2023-05-14T14:55:19.181Z,4.75
2023-05-14T14:57:47.674Z,5.57
2023-05-14T15:00:17.045Z,4.82
2023-05-14T15:02:46.081Z,4.15
2023-05-14T15:05:14.537Z,4.65
2023-05-14T15:07:44.325Z,3.65
2023-05-14T15:10:13.004Z,4.70
2023-05-14T15:12:41.543Z,3.42
2023-05-14T15:15:11.005Z,3.67
2023-05-14T15:17:39.896Z,4.25
2023-05-14T15:20:10.131Z,5.10
2023-05-14T15:22:38.509Z,3.13
2023-05-14T15:25:08.923Z,3.35
2023-05-14T15:27:37.800Z,4.95
2023-05-14T15:30:07.338Z,3.22
2023-05-14T15:32:35.871Z,3.05
2023-05-14T15:35:04.640Z,3.63
2023-05-14T15:37:38.039Z,6.70
2023-05-14T15:40:09.164Z,3.22
2023-05-14T15:42:38.182Z,3.83
2023-05-14T15:45:07.812Z,1.92
2023-05-14T15:47:41.215Z,2.20
2023-05-14T15:50:10.439Z,4.97
2023-05-14T15:52:39.250Z,2.90
2023-05-14T15:55:09.860Z,3.25
2023-05-14T15:57:40.763Z,4.82
2023-05-14T16:00:11.319Z,3.22
2023-05-14T16:02:40.069Z,2.67
2023-05-14T16:05:09.152Z,4.03
2023-05-14T16:07:37.880Z,3.15
2023-05-14T16:10:06.576Z,2.75
2023-05-14T16:12:36.615Z,2.95
2023-05-14T16:15:05.572Z,3.30
2023-05-14T16:17:33.978Z,3.78
2023-05-14T16:20:04.857Z,3.28
2023-05-14T16:22:34.732Z,4.05
2023-05-14T16:25:04.911Z,3.63
2023-05-14T16:27:33.386Z,2.60
2023-05-14T16:30:04.549Z,3.30
2023-05-14T16:32:33.731Z,3.47
2023-05-14T16:35:03.300Z,2.60
2023-05-14T16:37:32.903Z,3.33
2023-05-14T16:40:01.396Z,3.75
2023-05-14T16:42:29.792Z,4.40
2023-05-14T16:45:00.453Z,2.83
2023-05-14T16:47:30.543Z,4.72
2023-05-14T16:49:59.066Z,4.67
2023-05-14T16:52:27.745Z,3.40
2023-05-14T16:54:58.716Z,4.63
2023-05-14T16:57:27.596Z,6.13
2023-05-14T16:59:56.750Z,4.50
2023-05-14T17:02:25.104Z,4.73
2023-05-14T17:04:56.560Z,5.53
2023-05-14T17:07:25.065Z,4.57
2023-05-14T17:09:53.511Z,4.67
2023-05-14T17:12:22.234Z,4.90
2023-05-14T17:14:52.184Z,4.23
2023-05-14T17:17:20.795Z,4.50
2023-05-14T17:19:49.316Z,5.03
2023-05-14T17:22:19.476Z,5.43
2023-05-14T17:24:49.326Z,4.60
2023-05-14T17:27:17.896Z,3.97
2023-05-14T17:29:46.444Z,4.33
2023-05-14T17:32:14.958Z,3.83
2023-05-14T17:34:43.401Z,4.00
2023-05-14T17:37:11.807Z,4.63
2023-05-14T17:39:41.801Z,6.87
2023-05-14T17:42:10.477Z,2.80
2023-05-14T17:44:39.179Z,3.67
2023-05-14T17:47:08.997Z,3.20
2023-05-14T17:49:37.659Z,3.63
2023-05-14T17:52:06.228Z,6.30
2023-05-14T17:54:34.734Z,5.20
2023-05-14T17:57:05.039Z,4.77
2023-05-14T17:59:33.904Z,5.27
2023-05-14T18:02:02.323Z,5.77
2023-05-14T18:04:31.230Z,6.20
2023-05-14T18:07:03.213Z,5.00
2023-05-14T18:09:31.829Z,4.73
2023-05-14T18:12:00.310Z,5.30
2023-05-14T18:14:30.198Z,3.90
2023-05-14T18:16:58.958Z,4.97
2023-05-14T18:19:27.427Z,3.83
2023-05-14T18:21:56.173Z,5.63
2023-05-14T18:24:27.434Z,3.97
2023-05-14T18:27:13.025Z,5.00
2023-05-14T18:29:43.896Z,5.00
2023-05-14T18:32:15.181Z,3.97
2023-05-14T18:34:45.950Z,5.50
2023-05-14T18:37:14.743Z,3.70
2023-05-14T18:39:43.575Z,2.93
2023-05-14T18:42:13.747Z,6.50
2023-05-14T18:44:45.673Z,3.10
2023-05-14T18:47:41.952Z,4.90
2023-05-14T18:54:00.416Z,5.07
2023-05-14T18:56:50.147Z,3.63
2023-05-14T18:59:59.868Z,2.20
2023-05-14T19:02:37.793Z,3.50
2023-05-14T19:05:07.008Z,5.03
2023-05-14T19:07:37.330Z,3.93
2023-05-14T19:10:09.587Z,5.27
2023-05-14T19:12:38.001Z,4.40
2023-05-14T19:15:07.433Z,3.40
2023-05-14T19:17:41.311Z,4.27
2023-05-14T19:24:07.598Z,4.80
2023-05-14T19:26:36.180Z,5.20
2023-05-14T19:32:58.958Z,5.27
2023-05-14T19:44:14.592Z,4.27
2023-05-14T19:46:45.978Z,5.77
2023-05-14T19:49:19.748Z,4.17
2023-05-14T19:51:51.726Z,6.80
2023-05-14T19:54:21.225Z,3.97
2023-05-14T19:56:54.821Z,4.50
2023-05-14T19:59:26.317Z,4.77
2023-05-14T20:01:56.943Z,5.23
2023-05-14T20:04:38.262Z,4.37
2023-05-14T20:07:18.294Z,7.63
2023-05-14T20:09:47.526Z,4.60
2023-05-14T20:12:16.834Z,6.27
2023-05-14T20:14:50.242Z,4.33
2023-05-14T20:20:18.837Z,4.83
2023-05-14T20:23:00.025Z,6.30
2023-05-14T20:25:35.709Z,6.73
2023-05-14T20:28:06.121Z,5.50
2023-05-14T20:30:38.111Z,6.57
2023-05-14T20:33:14.521Z,7.80
2023-05-14T20:35:57.340Z,8.53
2023-05-14T20:38:29.670Z,8.43
2023-05-14T20:41:10.085Z,8.77
2023-05-14T20:43:39.463Z,8.43
2023-05-14T20:46:09.039Z,7.60
2023-05-14T20:48:37.566Z,6.97
2023-05-14T20:51:07.485Z,6.47
2023-05-14T20:53:39.186Z,7.50
2023-05-14T20:56:07.807Z,7.20
2023-05-14T20:58:36.722Z,8.10
2023-05-14T21:01:08.015Z,7.87
2023-05-14T21:03:42.048Z,9.67
2023-05-14T21:06:12.130Z,8.27
2023-05-14T21:08:40.870Z,9.87
2023-05-14T21:11:10.087Z,8.20
2023-05-14T21:14:08.796Z,8.50
2023-05-14T21:16:39.417Z,7.60
2023-05-14T21:19:08.231Z,10.97
2023-05-14T21:22:07.166Z,8.90
2023-05-14T21:24:37.191Z,10.27
2023-05-14T21:27:06.333Z,9.97
2023-05-14T21:29:34.922Z,8.50
2023-05-14T21:32:07.951Z,8.70
2023-05-14T21:34:36.381Z,9.97
2023-05-14T21:37:06.403Z,9.20
2023-05-14T21:39:34.938Z,12.33
2023-05-14T21:42:03.345Z,11.23
2023-05-14T21:44:31.838Z,10.93
2023-05-14T21:47:03.541Z,10.97
2023-05-14T21:49:32.037Z,12.30
2023-05-14T21:52:05.602Z,12.23
2023-05-14T21:54:35.507Z,9.83
2023-05-14T21:57:04.033Z,12.07
2023-05-14T21:59:32.930Z,10.27
2023-05-14T22:02:06.828Z,14.20
2023-05-14T22:04:38.665Z,15.40
2023-05-14T22:07:07.462Z,20.63
2023-05-14T22:15:23.669Z,10.67
2023-05-14T22:17:52.265Z,14.83
2023-05-14T22:20:24.847Z,13.03
2023-05-14T22:22:53.440Z,18.70
2023-05-14T22:25:21.963Z,15.13
2023-05-14T22:27:50.424Z,11.00
2023-05-14T22:30:25.611Z,13.07
2023-05-14T22:32:54.391Z,13.37
2023-05-14T22:35:23.203Z,12.27
2023-05-14T22:37:53.020Z,15.70
2023-05-14T22:40:23.563Z,14.33
2023-05-14T22:42:52.119Z,15.67
2023-05-14T22:45:22.714Z,12.47
2023-05-14T22:47:55.237Z,15.30
2023-05-14T22:50:23.739Z,13.87
2023-05-14T22:52:52.191Z,14.43
2023-05-14T22:55:21.350Z,12.13
2023-05-14T22:57:51.010Z,10.83
2023-05-14T23:00:19.751Z,9.37
2023-05-14T23:02:48.148Z,9.13
2023-05-14T23:05:18.116Z,9.30
2023-05-14T23:07:46.695Z,9.13
2023-05-14T23:10:19.504Z,10.37
2023-05-14T23:12:48.286Z,8.03
2023-05-14T23:15:16.680Z,8.33
2023-05-14T23:17:45.196Z,8.27
2023-05-14T23:20:14.223Z,8.97
2023-05-14T23:22:49.102Z,6.90
2023-05-14T23:25:17.638Z,7.67
2023-05-14T23:27:46.140Z,8.30
2023-05-14T23:30:15.700Z,10.77
2023-05-14T23:32:45.631Z,7.87
2023-05-14T23:35:14.188Z,9.87
2023-05-14T23:37:47.573Z,11.83
2023-05-14T23:40:17.519Z,15.00
2023-05-14T23:42:46.483Z,11.70
2023-05-14T23:45:15.362Z,10.63
2023-05-14T23:47:43.903Z,11.40
2023-05-14T23:50:12.739Z,9.07
2023-05-14T23:52:41.112Z,11.60
2023-05-14T23:55:09.967Z,10.27
2023-05-14T23:57:39.708Z,8.17
